createdAt,value
2023-06-04T00:02:22.891Z,10.72
2023-06-04T00:04:49.803Z,10.65
2023-06-04T00:07:16.730Z,10.57
2023-06-04T00:09:45.234Z,10.48
2023-06-04T00:12:12.306Z,10.53
2023-06-04T00:14:39.656Z,10.51
2023-06-04T00:17:07.155Z,10.39
2023-06-04T00:19:35.189Z,10.40
2023-06-04T00:22:02.159Z,10.33
2023-06-04T00:24:28.947Z,10.31
2023-06-04T00:26:55.748Z,10.28
2023-06-04T00:29:22.518Z,10.23
2023-06-04T00:31:50.114Z,10.23
2023-06-04T00:34:19.516Z,10.18
2023-06-04T00:36:46.434Z,10.17
2023-06-04T00:39:13.359Z,10.15
2023-06-04T00:41:40.433Z,10.15
2023-06-04T00:44:07.816Z,10.11
2023-06-04T00:46:39.363Z,10.08
2023-06-04T00:49:07.328Z,10.06
2023-06-04T00:51:34.415Z,10.04
2023-06-04T00:54:10.371Z,9.94
2023-06-04T00:56:38.491Z,9.96
2023-06-04T00:59:09.922Z,9.89
2023-06-04T01:01:41.917Z,9.83
2023-06-04T01:04:30.509Z,9.80
2023-06-04T01:06:59.924Z,9.81
2023-06-04T01:09:28.977Z,9.79
2023-06-04T01:11:59.390Z,9.84
2023-06-04T01:14:27.216Z,9.77
2023-06-04T01:17:04.544Z,9.65
2023-06-04T01:19:43.174Z,9.74
2023-06-04T01:22:26.071Z,9.60
2023-06-04T01:24:57.447Z,9.64
2023-06-04T01:27:24.853Z,9.51
2023-06-04T01:29:52.600Z,9.51
2023-06-04T01:32:19.791Z,9.48
2023-06-04T01:34:47.946Z,9.44
2023-06-04T01:37:14.846Z,9.42
2023-06-04T01:39:42.620Z,9.28
2023-06-04T01:42:10.038Z,9.32
2023-06-04T01:44:38.546Z,9.25
2023-06-04T01:47:05.522Z,9.27
2023-06-04T01:49:32.283Z,9.17
2023-06-04T01:51:59.039Z,9.12
2023-06-04T01:54:26.519Z,9.13
2023-06-04T01:56:53.596Z,9.13
2023-06-04T01:59:21.478Z,9.18
2023-06-04T02:01:48.304Z,9.11
2023-06-04T02:04:15.161Z,9.12
2023-06-04T02:06:41.958Z,9.06
2023-06-04T02:09:09.538Z,9.06
2023-06-04T02:11:36.422Z,9.03
2023-06-04T02:14:03.381Z,9.05
2023-06-04T02:16:30.223Z,9.02
2023-06-04T02:18:57.007Z,8.97
2023-06-04T02:21:24.357Z,9.02
2023-06-04T02:23:51.277Z,8.88
2023-06-04T02:26:18.584Z,8.87
2023-06-04T02:28:45.550Z,8.87
2023-06-04T02:31:12.319Z,8.82
2023-06-04T02:33:39.258Z,8.85
2023-06-04T02:36:06.707Z,8.85
2023-06-04T02:38:34.671Z,8.81
2023-06-04T02:41:01.565Z,8.75
2023-06-04T02:43:28.345Z,8.71
2023-06-04T02:45:55.142Z,8.78
2023-06-04T02:48:22.483Z,8.74
2023-06-04T02:50:49.294Z,8.67
2023-06-04T02:53:16.085Z,8.71
2023-06-04T02:55:42.985Z,8.74
2023-06-04T02:58:09.994Z,8.77
2023-06-04T03:00:36.814Z,8.86
2023-06-04T03:03:04.188Z,8.91
2023-06-04T03:05:33.224Z,8.96
2023-06-04T03:08:03.882Z,8.99
2023-06-04T03:10:32.369Z,8.94
2023-06-04T03:12:59.511Z,8.90
2023-06-04T03:15:26.378Z,8.93
2023-06-04T03:17:53.919Z,8.78
2023-06-04T03:20:20.733Z,8.79
2023-06-04T03:22:47.551Z,8.82
2023-06-04T03:25:14.989Z,8.79
2023-06-04T03:27:41.838Z,8.78
2023-06-04T03:30:09.372Z,8.81
2023-06-04T03:32:36.709Z,8.88
2023-06-04T03:35:04.498Z,8.84
2023-06-04T03:37:31.502Z,8.83
2023-06-04T03:39:58.262Z,8.81
2023-06-04T03:42:25.050Z,8.80
2023-06-04T03:44:52.390Z,8.84
2023-06-04T03:47:19.429Z,8.89
2023-06-04T03:49:46.300Z,8.93
2023-06-04T03:52:13.277Z,8.89
2023-06-04T03:54:40.643Z,8.91
2023-06-04T03:57:07.487Z,8.74
2023-06-04T03:59:34.368Z,8.84
2023-06-04T04:02:01.434Z,8.84
2023-06-04T04:04:28.414Z,8.85
2023-06-04T04:06:55.250Z,8.89
2023-06-04T04:09:22.016Z,8.76
2023-06-04T04:11:48.786Z,8.85
2023-06-04T04:14:15.889Z,8.88
2023-06-04T04:16:42.985Z,8.82
2023-06-04T04:19:10.007Z,8.75
2023-06-04T04:21:37.776Z,8.79
2023-06-04T04:24:05.566Z,8.78
2023-06-04T04:26:33.378Z,8.85
2023-06-04T04:29:01.151Z,8.84
2023-06-04T04:31:29.019Z,8.87
2023-06-04T04:33:59.205Z,8.86
2023-06-04T04:36:26.336Z,8.87
2023-06-04T04:38:55.987Z,8.84
2023-06-04T04:41:24.300Z,8.87
2023-06-04T04:43:53.891Z,8.78
2023-06-04T04:46:20.766Z,8.79
2023-06-04T04:48:48.030Z,8.87
2023-06-04T04:51:15.259Z,8.91
2023-06-04T04:53:42.699Z,8.87
2023-06-04T04:56:09.654Z,8.91
2023-06-04T04:58:36.440Z,8.93
2023-06-04T05:01:03.239Z,8.89
2023-06-04T05:03:30.060Z,8.97
2023-06-04T05:05:57.492Z,9.02
2023-06-04T05:08:24.553Z,8.84
2023-06-04T05:10:54.085Z,8.88
2023-06-04T05:13:21.640Z,8.79
2023-06-04T05:15:49.010Z,8.96
2023-06-04T05:18:17.632Z,9.08
2023-06-04T05:20:44.521Z,9.13
2023-06-04T05:23:13.595Z,9.25
2023-06-04T05:25:41.979Z,9.13
2023-06-04T05:28:08.807Z,9.17
2023-06-04T05:30:35.957Z,9.17
2023-06-04T05:33:02.803Z,9.13
2023-06-04T05:35:29.622Z,9.18
2023-06-04T05:37:56.444Z,9.22
2023-06-04T05:40:23.346Z,9.26
2023-06-04T05:42:50.554Z,9.29
2023-06-04T05:45:17.727Z,9.26
2023-06-04T05:47:44.724Z,9.28
2023-06-04T05:50:11.699Z,9.35
2023-06-04T05:52:38.947Z,9.36
2023-06-04T05:55:08.925Z,9.17
2023-06-04T05:57:36.258Z,9.14
2023-06-04T06:00:07.393Z,9.09
2023-06-04T06:02:35.948Z,9.15
2023-06-04T06:05:02.916Z,9.20
2023-06-04T06:07:29.842Z,9.29
2023-06-04T06:09:56.699Z,9.35
2023-06-04T06:12:23.673Z,9.39
2023-06-04T06:14:50.561Z,9.36
2023-06-04T06:17:17.820Z,9.23
2023-06-04T06:19:44.664Z,9.25
2023-06-04T06:22:11.531Z,9.36
2023-06-04T06:24:38.511Z,9.37
2023-06-04T06:27:06.183Z,9.36
2023-06-04T06:29:33.125Z,9.51
2023-06-04T06:32:00.498Z,9.56
2023-06-04T06:34:27.918Z,9.55
2023-06-04T06:36:54.779Z,9.47
2023-06-04T06:39:21.646Z,9.41
2023-06-04T06:41:48.771Z,9.20
2023-06-04T06:44:15.625Z,9.34
2023-06-04T06:46:42.457Z,9.57
2023-06-04T06:49:09.609Z,9.66
2023-06-04T06:51:36.613Z,9.56
2023-06-04T06:54:03.458Z,9.69
2023-06-04T06:56:31.769Z,9.73
2023-06-04T06:58:58.533Z,9.82
2023-06-04T07:01:25.371Z,9.63
2023-06-04T07:03:52.290Z,9.79
2023-06-04T07:06:19.271Z,9.89
2023-06-04T07:08:46.105Z,10.03
2023-06-04T07:11:13.446Z,10.29
2023-06-04T07:13:40.587Z,10.50
2023-06-04T07:16:07.614Z,10.48
2023-06-04T07:18:34.588Z,10.40
2023-06-04T07:21:01.423Z,10.37
2023-06-04T07:23:28.727Z,10.43
2023-06-04T07:25:55.727Z,10.48
2023-06-04T07:28:22.552Z,10.56
2023-06-04T07:30:49.376Z,10.73
2023-06-04T07:33:16.346Z,10.92
2023-06-04T07:35:44.441Z,10.93
2023-06-04T07:38:11.279Z,11.08
2023-06-04T07:40:38.168Z,10.99
2023-06-04T07:43:04.958Z,10.79
2023-06-04T07:45:34.871Z,10.83
2023-06-04T07:48:02.762Z,10.88
2023-06-04T07:50:29.640Z,10.93
2023-06-04T07:52:56.440Z,11.13
2023-06-04T07:55:23.726Z,10.97
2023-06-04T07:57:50.662Z,11.51
2023-06-04T08:00:19.100Z,11.83
2023-06-04T08:02:46.138Z,12.05
2023-06-04T08:05:15.007Z,11.89
2023-06-04T08:07:42.780Z,12.34
2023-06-04T08:10:10.322Z,12.40
2023-06-04T08:12:37.278Z,12.31
2023-06-04T08:15:04.667Z,12.44
2023-06-04T08:17:31.458Z,12.27
2023-06-04T08:19:58.512Z,12.48
2023-06-04T08:22:25.688Z,12.27
2023-06-04T08:24:52.479Z,12.13
2023-06-04T08:27:19.229Z,12.55
2023-06-04T08:29:45.997Z,12.86
2023-06-04T08:32:12.821Z,12.64
2023-06-04T08:34:39.572Z,12.29
2023-06-04T08:37:07.291Z,12.41
2023-06-04T08:39:34.682Z,12.24
2023-06-04T08:42:05.053Z,11.90
2023-06-04T08:44:31.940Z,12.13
2023-06-04T08:47:09.850Z,11.87
2023-06-04T08:49:37.865Z,11.83
2023-06-04T08:52:05.323Z,11.66
2023-06-04T08:54:33.468Z,11.67
2023-06-04T08:57:01.838Z,11.89
2023-06-04T08:59:29.449Z,11.76
2023-06-04T09:01:56.939Z,11.92
2023-06-04T09:04:24.305Z,12.01
2023-06-04T09:06:51.503Z,11.99
2023-06-04T09:09:20.079Z,11.87
2023-06-04T09:11:49.765Z,11.93
2023-06-04T09:14:19.995Z,12.02
2023-06-04T09:16:54.675Z,12.12
2023-06-04T09:19:22.554Z,12.31
2023-06-04T09:21:54.500Z,12.02
2023-06-04T09:24:26.932Z,12.02
2023-06-04T09:27:49.593Z,11.99
2023-06-04T09:30:16.636Z,12.08
2023-06-04T09:32:43.556Z,12.12
2023-06-04T09:35:15.713Z,12.35
2023-06-04T09:37:44.134Z,12.26
2023-06-04T09:40:11.644Z,12.05
2023-06-04T09:42:50.726Z,12.09
2023-06-04T09:45:29.934Z,12.25
2023-06-04T09:47:57.006Z,12.31
2023-06-04T09:50:28.900Z,12.25
2023-06-04T09:52:55.930Z,12.26
2023-06-04T09:55:23.842Z,12.39
2023-06-04T09:57:52.503Z,12.34
2023-06-04T10:00:22.152Z,12.50
2023-06-04T10:02:50.086Z,12.14
2023-06-04T10:05:17.625Z,12.29
2023-06-04T10:07:47.829Z,12.35
2023-06-04T10:10:21.423Z,12.65
2023-06-04T10:12:55.957Z,12.64
2023-06-04T10:15:22.803Z,12.51
2023-06-04T10:17:51.090Z,12.66
2023-06-04T10:20:19.376Z,12.72
2023-06-04T10:22:46.389Z,12.70
2023-06-04T10:25:13.920Z,12.67
2023-06-04T10:27:41.586Z,12.83
2023-06-04T10:30:09.566Z,12.86
2023-06-04T10:32:36.632Z,12.91
2023-06-04T10:35:09.376Z,13.10
2023-06-04T10:37:36.786Z,13.09
2023-06-04T10:40:06.645Z,13.11
2023-06-04T10:42:41.962Z,12.96
2023-06-04T10:45:11.215Z,13.00
2023-06-04T10:47:41.987Z,13.20
2023-06-04T10:50:14.236Z,13.24
2023-06-04T10:52:58.703Z,13.31
2023-06-04T10:55:26.946Z,13.29
2023-06-04T10:57:55.046Z,13.51
2023-06-04T11:00:22.556Z,13.59
2023-06-04T11:02:58.640Z,13.57
2023-06-04T11:05:44.060Z,13.70
2023-06-04T11:08:12.697Z,13.67
2023-06-04T11:10:44.784Z,13.59
2023-06-04T11:13:11.747Z,13.49
2023-06-04T11:15:50.093Z,13.74
2023-06-04T11:18:21.687Z,13.96
2023-06-04T11:20:51.167Z,14.03
2023-06-04T11:23:18.928Z,13.95
2023-06-04T11:25:47.003Z,14.09
2023-06-04T11:28:19.374Z,14.04
2023-06-04T11:31:04.611Z,14.02
2023-06-04T11:33:31.981Z,14.01
2023-06-04T11:35:58.831Z,14.06
2023-06-04T11:38:25.656Z,14.09
2023-06-04T11:41:02.973Z,14.16
2023-06-04T11:43:30.955Z,14.28
2023-06-04T11:45:59.729Z,14.33
2023-06-04T11:48:27.037Z,14.06
2023-06-04T11:50:54.824Z,14.24
2023-06-04T11:53:22.061Z,14.38
2023-06-04T11:55:49.049Z,14.44
2023-06-04T11:58:16.840Z,14.51
2023-06-04T12:00:43.799Z,14.45
2023-06-04T12:03:10.820Z,14.42
2023-06-04T12:05:37.842Z,14.37
2023-06-04T12:08:10.633Z,14.28
2023-06-04T12:10:41.788Z,14.51
2023-06-04T12:13:09.432Z,14.67
2023-06-04T12:15:36.482Z,14.68
2023-06-04T12:18:05.647Z,14.67
2023-06-04T12:20:40.612Z,14.81
2023-06-04T12:23:08.478Z,14.98
2023-06-04T12:25:38.759Z,15.09
2023-06-04T12:28:06.727Z,15.13
2023-06-04T12:30:41.202Z,15.17
2023-06-04T12:33:08.619Z,14.97
2023-06-04T12:35:36.198Z,15.07
2023-06-04T12:38:06.715Z,15.15
2023-06-04T12:40:33.829Z,15.31
2023-06-04T12:43:01.091Z,15.48
2023-06-04T12:45:29.959Z,15.47
2023-06-04T12:47:56.814Z,15.54
2023-06-04T12:50:23.628Z,15.63
2023-06-04T12:52:50.990Z,15.71
2023-06-04T12:55:17.768Z,15.86
2023-06-04T12:57:45.954Z,15.83
2023-06-04T13:00:13.878Z,15.77
2023-06-04T13:02:40.808Z,15.92
2023-06-04T13:05:08.733Z,16.11
2023-06-04T13:07:35.710Z,16.34
2023-06-04T13:10:02.623Z,16.08
2023-06-04T13:12:29.363Z,16.03
2023-06-04T13:14:57.194Z,16.11
2023-06-04T13:17:24.178Z,16.14
2023-06-04T13:19:51.394Z,16.35
2023-06-04T13:22:18.305Z,16.19
2023-06-04T13:24:45.205Z,16.27
2023-06-04T13:27:12.009Z,16.29
2023-06-04T13:29:38.906Z,16.53
2023-06-04T13:32:06.139Z,16.70
2023-06-04T13:34:33.421Z,16.51
2023-06-04T13:37:00.522Z,16.38
2023-06-04T13:39:27.629Z,16.58
2023-06-04T13:41:55.448Z,16.61
2023-06-04T13:44:27.442Z,16.73
2023-06-04T13:46:54.962Z,16.75
2023-06-04T13:49:22.462Z,16.66
2023-06-04T13:51:49.332Z,16.66
2023-06-04T13:54:16.151Z,16.73
2023-06-04T13:56:42.974Z,16.77
2023-06-04T13:59:09.759Z,16.72
2023-06-04T14:01:36.585Z,16.60
2023-06-04T14:04:07.607Z,16.74
2023-06-04T14:06:37.285Z,16.93
2023-06-04T14:09:05.150Z,16.86
2023-06-04T14:11:33.779Z,16.89
2023-06-04T14:14:00.768Z,17.07
2023-06-04T14:16:27.738Z,17.14
2023-06-04T14:18:54.859Z,17.33
2023-06-04T14:21:22.982Z,17.19
2023-06-04T14:23:51.499Z,17.23
2023-06-04T14:26:19.034Z,17.25
2023-06-04T14:28:46.063Z,17.37
2023-06-04T14:31:13.034Z,17.41
2023-06-04T14:33:39.971Z,17.34
2023-06-04T14:36:06.724Z,17.35
2023-06-04T14:38:33.588Z,17.34
2023-06-04T14:41:01.010Z,17.46
2023-06-04T14:43:27.817Z,17.47
2023-06-04T14:45:54.559Z,17.36
2023-06-04T14:48:21.435Z,17.50
2023-06-04T14:50:48.282Z,17.56
2023-06-04T14:53:15.094Z,17.58
2023-06-04T14:55:41.987Z,17.67
2023-06-04T14:58:09.398Z,17.58
2023-06-04T15:00:36.816Z,17.68
2023-06-04T15:03:04.353Z,17.75
2023-06-04T15:05:34.970Z,17.84
2023-06-04T15:08:03.101Z,17.69
2023-06-04T15:10:30.145Z,17.71
2023-06-04T15:12:57.855Z,17.59
2023-06-04T15:15:24.792Z,17.64
2023-06-04T15:17:51.996Z,17.70
2023-06-04T15:20:19.237Z,17.59
2023-06-04T15:22:46.662Z,17.66
2023-06-04T15:25:13.821Z,17.67
2023-06-04T15:27:42.113Z,17.64
2023-06-04T15:30:09.403Z,17.61
2023-06-04T15:32:36.623Z,17.69
2023-06-04T15:35:05.141Z,17.64
2023-06-04T15:37:32.161Z,17.79
2023-06-04T15:40:01.030Z,17.83
2023-06-04T15:42:28.263Z,17.97
2023-06-04T15:44:56.621Z,17.97
2023-06-04T15:47:23.633Z,18.00
2023-06-04T15:49:50.740Z,17.94
2023-06-04T15:52:17.867Z,17.95
2023-06-04T15:54:47.019Z,17.82
2023-06-04T15:57:14.653Z,17.88
2023-06-04T15:59:42.376Z,17.91
2023-06-04T16:02:09.340Z,18.03
2023-06-04T16:04:36.341Z,18.05
2023-06-04T16:07:03.877Z,17.97
2023-06-04T16:09:30.762Z,17.86
2023-06-04T16:11:58.132Z,17.95
2023-06-04T16:14:24.902Z,17.88
2023-06-04T16:16:51.873Z,18.02
2023-06-04T16:19:18.774Z,17.97
2023-06-04T16:21:45.845Z,17.90
2023-06-04T16:24:12.906Z,17.95
2023-06-04T16:26:39.880Z,18.01
2023-06-04T16:29:07.032Z,18.08
2023-06-04T16:31:34.267Z,17.97
2023-06-04T16:34:01.297Z,17.88
2023-06-04T16:36:28.167Z,17.92
2023-06-04T16:38:56.627Z,17.89
2023-06-04T16:41:23.760Z,17.93
2023-06-04T16:43:50.734Z,18.06
2023-06-04T16:46:17.617Z,17.86
2023-06-04T16:48:44.856Z,18.01
2023-06-04T16:51:12.690Z,18.05
2023-06-04T16:53:40.358Z,17.94
2023-06-04T16:56:07.476Z,18.04
2023-06-04T16:58:39.488Z,18.02
2023-06-04T17:01:09.689Z,17.99
2023-06-04T17:03:37.515Z,17.83
2023-06-04T17:06:08.072Z,17.83
2023-06-04T17:08:35.349Z,17.88
2023-06-04T17:11:02.242Z,17.93
2023-06-04T17:13:29.732Z,17.94
2023-06-04T17:15:56.612Z,17.85
2023-06-04T17:18:23.858Z,17.79
2023-06-04T17:20:50.757Z,17.89
2023-06-04T17:23:25.538Z,18.04
2023-06-04T17:25:53.488Z,17.98
2023-06-04T17:28:20.711Z,17.84
2023-06-04T17:30:47.800Z,17.90
2023-06-04T17:33:14.817Z,17.88
2023-06-04T17:35:41.871Z,18.03
2023-06-04T17:38:08.729Z,18.07
2023-06-04T17:40:35.583Z,18.03
2023-06-04T17:43:02.361Z,18.13
2023-06-04T17:45:31.590Z,18.19
2023-06-04T17:47:58.715Z,18.44
2023-06-04T17:50:26.076Z,18.63
2023-06-04T17:52:52.831Z,19.38
2023-06-04T17:55:20.178Z,20.06
2023-06-04T17:57:47.048Z,20.62
2023-06-04T18:00:15.007Z,20.91
2023-06-04T18:02:42.315Z,20.20
2023-06-04T18:05:10.321Z,20.53
2023-06-04T18:07:37.374Z,20.92
2023-06-04T18:10:04.677Z,21.48
2023-06-04T18:12:32.811Z,21.44
2023-06-04T18:15:01.317Z,20.83
2023-06-04T18:17:28.164Z,19.98
2023-06-04T18:19:55.015Z,20.51
2023-06-04T18:22:21.920Z,20.62
2023-06-04T18:24:48.742Z,20.87
2023-06-04T18:27:15.625Z,20.23
2023-06-04T18:29:47.141Z,19.86
2023-06-04T18:32:14.375Z,19.87
2023-06-04T18:34:41.179Z,20.27
2023-06-04T18:37:07.964Z,19.70
2023-06-04T18:39:34.883Z,19.21
2023-06-04T18:42:09.271Z,19.06
2023-06-04T18:44:45.382Z,18.55
2023-06-04T18:47:12.201Z,18.38
2023-06-04T18:49:38.986Z,18.00
2023-06-04T18:52:05.867Z,18.07
2023-06-04T18:54:32.823Z,17.82
2023-06-04T18:56:59.868Z,17.67
2023-06-04T18:59:27.028Z,17.58
2023-06-04T19:01:55.928Z,17.35
2023-06-04T19:04:22.889Z,17.14
2023-06-04T19:06:49.747Z,16.94
2023-06-04T19:09:16.864Z,16.86
2023-06-04T19:11:43.877Z,17.07
2023-06-04T19:14:10.709Z,16.89
2023-06-04T19:16:37.504Z,16.86
2023-06-04T19:19:08.729Z,16.65
2023-06-04T19:21:37.624Z,16.52
2023-06-04T19:24:05.308Z,16.53
2023-06-04T19:26:32.191Z,16.29
2023-06-04T19:28:58.963Z,16.29
2023-06-04T19:31:28.799Z,16.34
2023-06-04T19:33:56.576Z,16.24
2023-06-04T19:36:23.345Z,16.11
2023-06-04T19:38:50.190Z,16.05
2023-06-04T19:41:17.776Z,15.97
2023-06-04T19:43:44.740Z,15.83
2023-06-04T19:46:11.548Z,15.65
2023-06-04T19:48:39.525Z,15.58
2023-06-04T19:51:06.363Z,15.59
2023-06-04T19:53:33.228Z,15.51
2023-06-04T19:56:00.310Z,15.50
2023-06-04T19:58:28.009Z,15.34
2023-06-04T20:00:56.099Z,15.28
2023-06-04T20:03:24.275Z,15.19
2023-06-04T20:05:51.247Z,15.14
2023-06-04T20:08:18.243Z,15.11
2023-06-04T20:10:46.502Z,14.93
2023-06-04T20:13:13.318Z,14.81
2023-06-04T20:15:40.145Z,14.94
2023-06-04T20:18:07.506Z,14.82
2023-06-04T20:20:34.451Z,14.69
2023-06-04T20:23:01.234Z,14.58
2023-06-04T20:25:27.984Z,14.55
2023-06-04T20:27:54.768Z,14.48
2023-06-04T20:30:21.553Z,14.43
2023-06-04T20:32:49.784Z,14.29
2023-06-04T20:35:16.772Z,14.21
2023-06-04T20:37:43.628Z,14.20
2023-06-04T20:40:10.696Z,14.11
2023-06-04T20:42:37.498Z,14.00
2023-06-04T20:45:05.238Z,13.96
2023-06-04T20:47:32.085Z,13.86
2023-06-04T20:49:58.896Z,13.70
2023-06-04T20:52:25.744Z,13.59
2023-06-04T20:54:53.624Z,13.58
2023-06-04T20:57:20.384Z,13.55
2023-06-04T20:59:47.208Z,13.45
2023-06-04T21:02:14.103Z,13.37
2023-06-04T21:04:41.137Z,13.28
2023-06-04T21:07:08.012Z,13.17
2023-06-04T21:09:35.006Z,13.12
2023-06-04T21:12:01.769Z,13.07
2023-06-04T21:14:28.615Z,13.03
2023-06-04T21:16:55.525Z,13.08
2023-06-04T21:19:22.290Z,12.92
2023-06-04T21:21:49.099Z,12.85
2023-06-04T21:24:15.896Z,12.76
2023-06-04T21:26:42.671Z,12.69
2023-06-04T21:29:09.480Z,12.75
2023-06-04T21:31:36.400Z,12.61
2023-06-04T21:34:03.395Z,12.54
2023-06-04T21:36:30.612Z,12.48
2023-06-04T21:38:57.593Z,12.46
2023-06-04T21:41:24.531Z,12.48
2023-06-04T21:43:51.420Z,12.42
2023-06-04T21:46:19.069Z,12.33
2023-06-04T21:48:45.854Z,12.34
2023-06-04T21:51:13.428Z,12.18
2023-06-04T21:53:41.072Z,12.20
2023-06-04T21:56:08.030Z,12.13
2023-06-04T21:58:35.292Z,12.13
2023-06-04T22:01:02.189Z,12.05
2023-06-04T22:03:29.642Z,11.97
2023-06-04T22:05:56.560Z,11.93
2023-06-04T22:08:23.357Z,11.87
2023-06-04T22:10:50.194Z,11.83
2023-06-04T22:13:17.127Z,11.82
2023-06-04T22:15:44.222Z,11.65
2023-06-04T22:18:11.355Z,11.64
2023-06-04T22:20:38.235Z,11.60
2023-06-04T22:23:05.069Z,11.61
2023-06-04T22:25:31.861Z,11.55
2023-06-04T22:27:58.660Z,11.51
2023-06-04T22:30:25.630Z,11.47
2023-06-04T22:32:52.651Z,11.41
2023-06-04T22:35:19.717Z,11.30
2023-06-04T22:37:46.551Z,11.28
2023-06-04T22:40:14.400Z,11.28
2023-06-04T22:42:41.700Z,11.26
2023-06-04T22:45:09.338Z,11.23
2023-06-04T22:47:36.739Z,11.17
2023-06-04T22:50:03.939Z,11.14
2023-06-04T22:52:31.862Z,11.04
2023-06-04T22:54:58.754Z,10.95
2023-06-04T22:57:25.835Z,10.94
2023-06-04T22:59:53.323Z,10.92
2023-06-04T23:02:20.129Z,10.91
2023-06-04T23:04:47.020Z,10.85
2023-06-04T23:07:13.779Z,10.84
2023-06-04T23:09:40.808Z,10.76
2023-06-04T23:12:07.789Z,10.70
2023-06-04T23:14:34.552Z,10.68
2023-06-04T23:17:01.559Z,10.61
2023-06-04T23:19:28.637Z,10.60
2023-06-04T23:21:55.640Z,10.56
2023-06-04T23:24:22.437Z,10.53
2023-06-04T23:26:49.667Z,10.51
2023-06-04T23:29:16.490Z,10.42
2023-06-04T23:31:43.422Z,10.37
2023-06-04T23:34:10.288Z,10.31
2023-06-04T23:36:37.216Z,10.25
2023-06-04T23:39:05.222Z,10.13
2023-06-04T23:41:32.571Z,10.13
2023-06-04T23:43:59.372Z,10.11
2023-06-04T23:46:26.360Z,10.15
2023-06-04T23:48:53.203Z,10.16
2023-06-04T23:51:20.181Z,10.11
2023-06-04T23:53:47.534Z,10.09
2023-06-04T23:56:14.590Z,10.06
2023-06-04T23:58:41.777Z,9.98
